createdAt,value
2022-11-14T00:01:23.623Z,11.70
2022-11-14T00:03:51.842Z,11.72
2022-11-14T00:06:19.667Z,11.65
2022-11-14T00:08:47.157Z,11.63
2022-11-14T00:11:14.691Z,11.62
2022-11-14T00:13:42.185Z,11.58
2022-11-14T00:16:09.709Z,11.64
2022-11-14T00:18:38.584Z,11.64
2022-11-14T00:21:06.205Z,11.62
2022-11-14T00:23:33.791Z,11.61
2022-11-14T00:26:01.268Z,11.65
2022-11-14T00:28:29.071Z,11.66
2022-11-14T00:30:56.960Z,11.63
2022-11-14T00:33:24.494Z,11.58
2022-11-14T00:35:54.201Z,11.53
2022-11-14T00:38:21.783Z,11.56
2022-11-14T00:40:49.247Z,11.60
2022-11-14T00:43:16.745Z,11.54
2022-11-14T00:45:44.857Z,11.52
2022-11-14T00:48:12.380Z,11.48
2022-11-14T00:50:39.917Z,11.55
2022-11-14T00:53:08.760Z,11.55
2022-11-14T00:55:36.259Z,11.55
2022-11-14T00:58:03.763Z,11.55
2022-11-14T01:00:31.362Z,11.55
2022-11-14T01:02:58.898Z,11.56
2022-11-14T01:05:26.524Z,11.54
2022-11-14T01:07:54.058Z,11.50
2022-11-14T01:10:22.950Z,11.45
2022-11-14T01:12:50.806Z,11.42
2022-11-14T01:15:18.525Z,11.46
2022-11-14T01:17:46.035Z,11.48
2022-11-14T01:20:13.487Z,11.48
2022-11-14T01:22:40.969Z,11.43
2022-11-14T01:25:09.390Z,11.43
2022-11-14T01:27:38.200Z,11.45
2022-11-14T01:30:06.697Z,11.42
2022-11-14T01:32:34.227Z,11.39
2022-11-14T01:35:01.941Z,11.22
2022-11-14T01:37:29.497Z,11.38
2022-11-14T01:39:56.964Z,10.96
2022-11-14T01:42:27.349Z,11.39
2022-11-14T01:44:56.513Z,11.40
2022-11-14T01:47:26.837Z,11.29
2022-11-14T01:49:54.558Z,11.36
2022-11-14T01:52:23.040Z,10.79
2022-11-14T01:54:52.117Z,10.95
2022-11-14T01:57:22.063Z,11.35
2022-11-14T01:59:52.416Z,11.02
2022-11-14T02:02:22.599Z,10.93
2022-11-14T02:04:50.405Z,11.34
2022-11-14T02:07:17.953Z,11.36
2022-11-14T02:09:47.201Z,11.33
2022-11-14T02:12:15.616Z,11.35
2022-11-14T02:14:45.113Z,11.13
2022-11-14T02:17:28.896Z,11.33
2022-11-14T02:20:09.163Z,11.34
2022-11-14T02:22:36.659Z,11.29
2022-11-14T02:25:04.352Z,11.30
2022-11-14T02:27:32.228Z,11.28
2022-11-14T02:30:04.817Z,11.29
2022-11-14T02:32:45.057Z,11.25
2022-11-14T02:35:21.027Z,11.34
2022-11-14T02:37:48.476Z,11.34
2022-11-14T02:40:15.955Z,11.34
2022-11-14T02:42:43.405Z,11.37
2022-11-14T02:45:11.275Z,11.40
2022-11-14T02:47:38.721Z,11.39
2022-11-14T02:50:06.799Z,11.34
2022-11-14T02:52:35.583Z,11.36
2022-11-14T02:55:03.043Z,11.36
2022-11-14T02:57:30.493Z,11.36
2022-11-14T02:59:57.959Z,11.36
2022-11-14T03:02:25.425Z,11.34
2022-11-14T03:04:52.877Z,11.34
2022-11-14T03:07:20.356Z,11.12
2022-11-14T03:09:49.190Z,11.30
2022-11-14T03:12:17.753Z,11.25
2022-11-14T03:14:45.264Z,11.28
2022-11-14T03:17:12.782Z,11.22
2022-11-14T03:19:40.210Z,11.22
2022-11-14T03:22:07.691Z,11.25
2022-11-14T03:24:35.134Z,11.28
2022-11-14T03:27:03.897Z,11.23
2022-11-14T03:29:31.357Z,11.16
2022-11-14T03:31:58.806Z,10.35
2022-11-14T03:34:26.296Z,11.26
2022-11-14T03:36:53.768Z,11.26
2022-11-14T03:39:21.722Z,11.22
2022-11-14T03:41:49.169Z,11.21
2022-11-14T03:44:17.964Z,11.24
2022-11-14T03:46:45.402Z,11.21
2022-11-14T03:49:12.857Z,11.24
2022-11-14T03:51:40.285Z,11.25
2022-11-14T03:54:08.072Z,11.19
2022-11-14T03:56:35.513Z,11.22
2022-11-14T03:59:03.119Z,11.21
2022-11-14T04:01:31.871Z,11.19
2022-11-14T04:03:59.311Z,11.10
2022-11-14T04:06:26.741Z,11.24
2022-11-14T04:08:56.527Z,11.21
2022-11-14T04:11:23.969Z,11.15
2022-11-14T04:13:51.424Z,11.21
2022-11-14T04:16:18.878Z,11.22
2022-11-14T04:18:47.668Z,11.20
2022-11-14T04:21:15.117Z,11.19
2022-11-14T04:23:42.582Z,11.15
2022-11-14T04:26:10.046Z,11.16
2022-11-14T04:28:37.503Z,11.17
2022-11-14T04:31:05.091Z,11.20
2022-11-14T04:33:32.524Z,11.20
2022-11-14T04:36:01.294Z,10.93
2022-11-14T04:38:29.193Z,11.18
2022-11-14T04:40:56.849Z,11.18
2022-11-14T04:43:24.288Z,11.17
2022-11-14T04:45:51.728Z,11.15
2022-11-14T04:48:19.168Z,11.18
2022-11-14T04:50:46.721Z,11.03
2022-11-14T04:53:15.512Z,11.13
2022-11-14T04:55:44.615Z,11.10
2022-11-14T04:58:12.088Z,11.16
2022-11-14T05:00:39.565Z,11.12
2022-11-14T05:03:07.019Z,11.06
2022-11-14T05:05:39.228Z,10.97
2022-11-14T05:08:09.125Z,10.99
2022-11-14T05:10:37.911Z,10.98
2022-11-14T05:13:05.348Z,10.98
2022-11-14T05:15:32.826Z,10.96
2022-11-14T05:18:00.290Z,10.96
2022-11-14T05:20:27.760Z,10.96
2022-11-14T05:22:55.884Z,10.96
2022-11-14T05:25:23.368Z,10.93
2022-11-14T05:27:52.150Z,10.91
2022-11-14T05:30:19.909Z,10.94
2022-11-14T05:32:47.372Z,10.95
2022-11-14T05:35:14.858Z,10.92
2022-11-14T05:37:42.536Z,10.94
2022-11-14T05:40:11.223Z,10.94
2022-11-14T05:42:38.656Z,10.93
2022-11-14T05:45:08.763Z,10.91
2022-11-14T05:47:36.026Z,10.90
2022-11-14T05:50:03.612Z,10.89
2022-11-14T05:52:31.730Z,10.90
2022-11-14T05:54:59.209Z,10.91
2022-11-14T05:57:26.691Z,10.89
2022-11-14T05:59:54.205Z,10.88
2022-11-14T06:02:23.054Z,10.86
2022-11-14T06:04:50.535Z,10.83
2022-11-14T06:07:20.300Z,10.80
2022-11-14T06:09:48.052Z,10.77
2022-11-14T06:12:15.526Z,10.80
2022-11-14T06:14:42.978Z,10.79
2022-11-14T06:17:10.422Z,10.80
2022-11-14T06:19:39.226Z,10.69
2022-11-14T06:22:06.684Z,10.74
2022-11-14T06:24:34.130Z,10.75
2022-11-14T06:27:01.595Z,10.76
2022-11-14T06:29:32.736Z,10.74
2022-11-14T06:32:02.883Z,10.73
2022-11-14T06:34:30.340Z,10.74
2022-11-14T06:36:59.099Z,10.72
2022-11-14T06:39:26.563Z,10.68
2022-11-14T06:41:54.012Z,10.72
2022-11-14T06:44:25.124Z,10.78
2022-11-14T06:46:57.569Z,10.83
2022-11-14T06:49:25.057Z,10.86
2022-11-14T06:51:52.497Z,10.89
2022-11-14T06:54:21.329Z,10.93
2022-11-14T06:56:48.778Z,10.90
2022-11-14T06:59:16.240Z,10.97
2022-11-14T07:01:43.848Z,11.01
2022-11-14T07:04:11.310Z,10.98
2022-11-14T07:06:38.748Z,11.06
2022-11-14T07:09:06.381Z,11.08
2022-11-14T07:11:35.997Z,11.12
2022-11-14T07:14:04.253Z,11.16
2022-11-14T07:16:32.445Z,11.06
2022-11-14T07:18:59.998Z,11.16
2022-11-14T07:21:27.680Z,11.15
2022-11-14T07:23:55.248Z,11.11
2022-11-14T07:26:22.762Z,11.25
2022-11-14T07:28:54.454Z,11.27
2022-11-14T07:31:24.118Z,11.29
2022-11-14T07:33:51.596Z,11.23
2022-11-14T07:36:19.107Z,11.02
2022-11-14T07:38:46.548Z,11.43
2022-11-14T07:41:14.806Z,11.41
2022-11-14T07:43:42.341Z,11.43
2022-11-14T07:46:12.248Z,11.42
2022-11-14T07:48:39.762Z,11.41
2022-11-14T07:51:08.363Z,11.40
2022-11-14T07:53:35.883Z,11.41
2022-11-14T07:56:04.340Z,11.43
2022-11-14T07:58:32.079Z,11.43
2022-11-14T08:01:01.629Z,11.45
2022-11-14T08:03:30.429Z,11.52
2022-11-14T08:06:01.775Z,11.53
2022-11-14T08:08:29.474Z,11.57
2022-11-14T08:10:57.922Z,11.42
2022-11-14T08:13:32.121Z,11.30
2022-11-14T08:16:00.923Z,11.47
2022-11-14T08:18:29.967Z,11.86
2022-11-14T08:20:59.050Z,11.90
2022-11-14T08:23:26.501Z,11.96
2022-11-14T08:25:54.070Z,11.99
2022-11-14T08:28:23.362Z,12.02
2022-11-14T08:30:51.040Z,12.06
2022-11-14T08:33:18.816Z,12.11
2022-11-14T08:35:47.634Z,12.15
2022-11-14T08:38:15.250Z,12.19
2022-11-14T08:40:43.704Z,12.20
2022-11-14T08:43:11.987Z,12.25
2022-11-14T08:45:40.428Z,12.32
2022-11-14T08:48:07.860Z,12.31
2022-11-14T08:50:35.320Z,12.35
2022-11-14T08:53:04.153Z,12.34
2022-11-14T08:55:31.591Z,12.31
2022-11-14T08:57:59.009Z,12.36
2022-11-14T09:00:26.717Z,12.37
2022-11-14T09:02:54.228Z,12.42
2022-11-14T09:05:22.100Z,12.38
2022-11-14T09:07:49.539Z,12.38
2022-11-14T09:10:18.453Z,12.41
2022-11-14T09:12:45.875Z,12.49
2022-11-14T09:15:13.343Z,12.54
2022-11-14T09:17:40.774Z,12.60
2022-11-14T09:20:08.791Z,12.68
2022-11-14T09:22:36.295Z,12.74
2022-11-14T09:25:03.760Z,12.78
2022-11-14T09:27:32.572Z,12.77
2022-11-14T09:30:00.110Z,12.77
2022-11-14T09:32:27.565Z,12.81
2022-11-14T09:34:55.083Z,12.80
2022-11-14T09:37:22.512Z,12.81
2022-11-14T09:39:49.957Z,12.83
2022-11-14T09:42:23.968Z,12.49
2022-11-14T09:44:56.538Z,12.86
2022-11-14T09:47:24.669Z,12.55
2022-11-14T09:49:52.844Z,12.87
2022-11-14T09:52:27.573Z,12.82
2022-11-14T09:54:57.169Z,12.95
2022-11-14T09:57:24.647Z,12.76
2022-11-14T09:59:52.091Z,12.99
2022-11-14T10:02:33.446Z,12.68
2022-11-14T10:05:22.075Z,13.09
2022-11-14T10:08:00.550Z,13.12
2022-11-14T10:10:38.733Z,13.17
2022-11-14T10:13:11.793Z,12.94
2022-11-14T10:15:42.505Z,13.33
2022-11-14T10:18:30.246Z,13.09
2022-11-14T10:20:59.026Z,13.16
2022-11-14T10:23:32.479Z,13.56
2022-11-14T10:26:08.591Z,13.62
2022-11-14T10:29:00.288Z,13.63
2022-11-14T10:31:33.707Z,13.51
2022-11-14T10:34:05.784Z,13.42
2022-11-14T10:36:49.927Z,13.37
2022-11-14T10:39:19.675Z,13.69
2022-11-14T10:42:07.412Z,13.75
2022-11-14T10:44:36.475Z,13.84
2022-11-14T10:47:04.950Z,13.82
2022-11-14T10:49:35.994Z,13.82
2022-11-14T10:52:05.701Z,13.53
2022-11-14T10:54:34.932Z,13.58
2022-11-14T10:57:02.407Z,13.93
2022-11-14T10:59:30.233Z,13.95
2022-11-14T11:01:58.233Z,13.71
2022-11-14T11:04:27.382Z,13.99
2022-11-14T11:06:57.436Z,13.98
2022-11-14T11:09:45.773Z,14.05
2022-11-14T11:12:16.631Z,13.99
2022-11-14T11:14:44.527Z,13.93
2022-11-14T11:17:22.472Z,13.57
2022-11-14T11:19:49.963Z,13.91
2022-11-14T11:22:30.637Z,13.92
2022-11-14T11:24:58.080Z,13.97
2022-11-14T11:27:26.540Z,13.82
2022-11-14T11:30:05.850Z,13.94
2022-11-14T11:32:33.273Z,13.92
2022-11-14T11:35:02.151Z,13.88
2022-11-14T11:37:31.941Z,13.57
2022-11-14T11:40:01.784Z,13.88
2022-11-14T11:43:06.230Z,13.89
2022-11-14T11:45:19.624Z,13.48
2022-11-14T11:47:51.119Z,13.79
2022-11-14T11:50:20.380Z,14.01
2022-11-14T11:52:52.859Z,14.17
2022-11-14T11:55:22.597Z,14.35
2022-11-14T11:57:54.968Z,14.43
2022-11-14T12:00:23.166Z,14.55
2022-11-14T12:02:52.189Z,14.63
2022-11-14T12:05:24.062Z,14.70
2022-11-14T12:07:56.199Z,14.74
2022-11-14T12:10:25.142Z,14.78
2022-11-14T12:13:05.633Z,14.83
2022-11-14T12:15:34.221Z,14.49
2022-11-14T12:18:35.878Z,14.92
2022-11-14T12:21:25.761Z,14.86
2022-11-14T12:24:02.120Z,14.65
2022-11-14T12:26:57.335Z,14.45
2022-11-14T12:29:43.471Z,14.69
2022-11-14T12:32:13.219Z,14.69
2022-11-14T12:34:41.981Z,14.31
2022-11-14T12:37:10.511Z,14.73
2022-11-14T12:39:39.400Z,14.71
2022-11-14T12:42:08.083Z,14.25
2022-11-14T12:44:37.252Z,14.69
2022-11-14T12:47:16.077Z,14.67
2022-11-14T12:50:00.427Z,14.33
2022-11-14T12:52:43.798Z,14.77
2022-11-14T12:55:41.017Z,14.72
2022-11-14T12:58:10.386Z,14.57
2022-11-14T13:00:40.661Z,14.75
2022-11-14T13:03:25.803Z,14.47
2022-11-14T13:05:58.351Z,14.65
2022-11-14T13:08:40.813Z,14.66
2022-11-14T13:11:58.939Z,14.67
2022-11-14T13:14:45.527Z,14.69
2022-11-14T13:17:42.193Z,14.79
2022-11-14T13:20:49.910Z,14.77
2022-11-14T13:23:56.535Z,14.88
2022-11-14T13:26:43.583Z,14.91
2022-11-14T13:29:57.584Z,14.95
2022-11-14T13:32:57.323Z,15.03
2022-11-14T13:35:33.433Z,15.02
2022-11-14T13:38:09.743Z,14.90
2022-11-14T13:40:39.043Z,15.05
2022-11-14T13:43:08.280Z,15.06
2022-11-14T13:48:29.519Z,15.05
2022-11-14T13:51:10.215Z,15.05
2022-11-14T13:53:46.852Z,15.06
2022-11-14T13:56:21.397Z,15.02
2022-11-14T13:58:59.847Z,14.98
2022-11-14T14:01:37.732Z,14.94
2022-11-14T14:04:13.950Z,14.62
2022-11-14T14:06:49.660Z,14.90
2022-11-14T14:09:22.852Z,14.79
2022-11-14T14:11:57.786Z,14.94
2022-11-14T14:14:34.552Z,14.65
2022-11-14T14:17:04.977Z,14.93
2022-11-14T14:19:38.472Z,14.87
2022-11-14T14:22:09.178Z,14.40
2022-11-14T14:24:44.221Z,14.57
2022-11-14T14:27:15.170Z,14.81
2022-11-14T14:29:46.325Z,14.78
2022-11-14T14:32:14.484Z,14.75
2022-11-14T14:34:42.289Z,14.75
2022-11-14T14:37:21.259Z,14.76
2022-11-14T14:39:59.217Z,14.53
2022-11-14T14:42:30.861Z,14.74
2022-11-14T14:45:02.899Z,14.74
2022-11-14T14:47:34.849Z,14.57
2022-11-14T14:50:02.659Z,14.67
2022-11-14T14:52:32.428Z,14.66
2022-11-14T14:55:02.220Z,14.37
2022-11-14T14:57:30.112Z,14.62
2022-11-14T15:00:00.727Z,14.56
2022-11-14T15:02:28.506Z,14.27
2022-11-14T15:04:56.146Z,14.49
2022-11-14T15:07:25.047Z,14.08
2022-11-14T15:09:54.768Z,14.38
2022-11-14T15:12:22.729Z,14.34
2022-11-14T15:14:50.202Z,14.27
2022-11-14T15:17:17.647Z,14.28
2022-11-14T15:19:45.890Z,13.97
2022-11-14T15:22:26.684Z,14.08
2022-11-14T15:25:18.114Z,14.18
2022-11-14T15:27:46.455Z,14.18
2022-11-14T15:30:21.983Z,14.16
2022-11-14T15:32:50.825Z,13.87
2022-11-14T15:35:34.546Z,14.14
2022-11-14T15:38:36.810Z,14.12
2022-11-14T15:41:19.708Z,13.83
2022-11-14T15:43:51.650Z,14.08
2022-11-14T15:46:27.303Z,14.06
2022-11-14T15:48:54.749Z,14.04
2022-11-14T15:51:40.437Z,14.05
2022-11-14T15:54:22.558Z,14.04
2022-11-14T15:56:51.376Z,14.03
2022-11-14T15:59:19.035Z,14.01
2022-11-14T16:01:47.346Z,14.00
2022-11-14T16:04:17.448Z,13.80
2022-11-14T16:06:45.266Z,13.99
2022-11-14T16:09:15.196Z,13.98
2022-11-14T16:11:43.016Z,13.97
2022-11-14T16:14:11.771Z,13.94
2022-11-14T16:16:39.311Z,13.93
2022-11-14T16:19:07.030Z,13.73
2022-11-14T16:21:34.580Z,13.69
2022-11-14T16:24:02.246Z,13.88
2022-11-14T16:26:30.241Z,13.88
2022-11-14T16:28:58.162Z,13.87
2022-11-14T16:31:26.937Z,13.82
2022-11-14T16:33:54.793Z,13.84
2022-11-14T16:36:23.044Z,13.81
2022-11-14T16:38:52.457Z,13.81
2022-11-14T16:41:20.168Z,13.79
2022-11-14T16:43:47.675Z,13.78
2022-11-14T16:46:15.166Z,13.76
2022-11-14T16:48:43.916Z,13.75
2022-11-14T16:51:40.745Z,13.73
2022-11-14T16:53:59.048Z,13.36
2022-11-14T16:56:26.523Z,13.60
2022-11-14T16:58:56.791Z,13.67
2022-11-14T17:01:24.320Z,13.69
2022-11-14T17:03:53.206Z,13.67
2022-11-14T17:06:20.777Z,13.66
2022-11-14T17:08:48.208Z,13.65
2022-11-14T17:11:15.656Z,13.60
2022-11-14T17:13:43.106Z,13.42
2022-11-14T17:16:10.555Z,13.60
2022-11-14T17:18:39.058Z,13.60
2022-11-14T17:21:08.309Z,13.54
2022-11-14T17:23:35.848Z,13.57
2022-11-14T17:26:03.691Z,13.56
2022-11-14T17:28:31.325Z,13.55
2022-11-14T17:30:58.915Z,13.54
2022-11-14T17:33:26.381Z,13.53
2022-11-14T17:35:53.828Z,13.53
2022-11-14T17:38:22.587Z,13.52
2022-11-14T17:40:50.042Z,13.51
2022-11-14T17:43:17.738Z,13.03
2022-11-14T17:45:54.837Z,13.14
2022-11-14T17:48:22.305Z,13.45
2022-11-14T17:50:49.749Z,13.46
2022-11-14T17:53:17.229Z,13.46
2022-11-14T17:55:46.203Z,13.46
2022-11-14T17:58:14.849Z,13.45
2022-11-14T18:00:42.319Z,13.45
2022-11-14T18:03:09.777Z,13.45
2022-11-14T18:05:37.242Z,13.43
2022-11-14T18:08:04.815Z,13.41
2022-11-14T18:10:32.255Z,13.42
2022-11-14T18:13:03.832Z,13.38
2022-11-14T18:15:31.373Z,13.40
2022-11-14T18:17:58.926Z,13.15
2022-11-14T18:20:26.403Z,13.39
2022-11-14T18:22:53.890Z,13.39
2022-11-14T18:25:21.319Z,13.38
2022-11-14T18:27:48.781Z,13.37
2022-11-14T18:30:40.469Z,13.37
2022-11-14T18:33:05.714Z,13.35
2022-11-14T18:35:33.228Z,13.34
2022-11-14T18:38:00.683Z,13.35
2022-11-14T18:40:28.123Z,13.33
2022-11-14T18:42:56.141Z,13.32
2022-11-14T18:45:24.979Z,13.31
2022-11-14T18:47:52.417Z,13.30
2022-11-14T18:50:19.883Z,13.29
2022-11-14T18:52:47.304Z,13.28
2022-11-14T18:55:14.898Z,13.28
2022-11-14T18:57:42.323Z,13.27
2022-11-14T19:00:11.111Z,13.26
2022-11-14T19:02:39.870Z,13.24
2022-11-14T19:05:07.457Z,13.24
2022-11-14T19:07:35.049Z,13.24
2022-11-14T19:10:02.541Z,13.23
2022-11-14T19:12:30.010Z,13.23
2022-11-14T19:14:57.457Z,13.21
2022-11-14T19:17:24.914Z,13.20
2022-11-14T19:19:54.265Z,13.20
2022-11-14T19:22:21.725Z,13.19
2022-11-14T19:24:49.167Z,13.18
2022-11-14T19:27:16.828Z,13.18
2022-11-14T19:29:44.655Z,13.18
2022-11-14T19:32:12.143Z,13.17
2022-11-14T19:34:39.616Z,13.17
2022-11-14T19:37:08.397Z,13.16
2022-11-14T19:39:35.853Z,13.16
2022-11-14T19:42:03.330Z,13.15
2022-11-14T19:44:30.782Z,13.13
2022-11-14T19:46:58.233Z,13.14
2022-11-14T19:49:25.683Z,13.14
2022-11-14T19:51:53.145Z,13.12
2022-11-14T19:54:21.901Z,13.11
2022-11-14T19:56:49.367Z,13.11
2022-11-14T19:59:21.366Z,13.10
2022-11-14T20:01:54.964Z,13.11
2022-11-14T20:04:22.497Z,13.10
2022-11-14T20:06:49.984Z,13.10
2022-11-14T20:09:17.470Z,13.09
2022-11-14T20:11:46.245Z,13.09
2022-11-14T20:14:13.690Z,13.08
2022-11-14T20:16:41.150Z,13.08
2022-11-14T20:19:08.643Z,13.09
2022-11-14T20:21:36.149Z,13.08
2022-11-14T20:24:03.702Z,13.07
2022-11-14T20:26:31.159Z,13.06
2022-11-14T20:28:59.917Z,13.06
2022-11-14T20:31:28.563Z,13.05
2022-11-14T20:33:56.205Z,13.06
2022-11-14T20:36:24.806Z,12.64
2022-11-14T20:38:52.477Z,12.52
2022-11-14T20:41:19.931Z,12.76
2022-11-14T20:43:47.362Z,13.03
2022-11-14T20:46:16.598Z,12.73
2022-11-14T20:48:44.179Z,13.02
2022-11-14T20:51:13.753Z,12.69
2022-11-14T20:53:41.524Z,12.64
2022-11-14T20:56:09.020Z,12.63
2022-11-14T20:58:36.568Z,12.76
2022-11-14T21:01:04.040Z,12.73
2022-11-14T21:03:33.246Z,13.00
2022-11-14T21:06:01.115Z,13.00
2022-11-14T21:08:28.940Z,13.00
2022-11-14T21:10:59.288Z,12.56
2022-11-14T21:13:44.587Z,12.68
2022-11-14T21:16:13.702Z,12.90
2022-11-14T21:18:46.717Z,12.96
2022-11-14T21:21:16.881Z,12.94
2022-11-14T21:23:44.412Z,12.53
2022-11-14T21:26:12.795Z,12.96
2022-11-14T21:28:40.969Z,12.93
2022-11-14T21:31:16.132Z,12.96
2022-11-14T21:33:45.089Z,12.93
2022-11-14T21:39:00.941Z,12.91
2022-11-14T21:41:29.510Z,12.92
2022-11-14T21:43:57.469Z,12.90
2022-11-14T21:46:25.268Z,12.91
2022-11-14T21:48:54.245Z,12.90
2022-11-14T21:51:22.711Z,12.90
2022-11-14T21:53:50.995Z,12.85
2022-11-14T21:56:19.502Z,12.89
2022-11-14T21:58:46.987Z,12.88
2022-11-14T22:01:15.921Z,12.89
2022-11-14T22:04:01.033Z,12.56
2022-11-14T22:06:29.818Z,12.87
2022-11-14T22:08:57.262Z,12.89
2022-11-14T22:11:24.780Z,12.87
2022-11-14T22:13:52.212Z,12.87
2022-11-14T22:16:20.664Z,12.87
2022-11-14T22:18:48.201Z,12.87
2022-11-14T22:21:15.652Z,12.87
2022-11-14T22:23:44.420Z,12.45
2022-11-14T22:26:12.088Z,12.87
2022-11-14T22:28:39.625Z,12.87
2022-11-14T22:31:08.118Z,12.86
2022-11-14T22:33:36.396Z,12.85
2022-11-14T22:36:08.002Z,12.85
2022-11-14T22:38:36.243Z,12.86
2022-11-14T22:41:06.126Z,12.84
2022-11-14T22:43:33.850Z,12.84
2022-11-14T22:46:01.465Z,12.49
2022-11-14T22:48:29.980Z,12.84
2022-11-14T22:50:58.733Z,12.40
2022-11-14T22:53:26.248Z,12.84
2022-11-14T22:55:53.690Z,12.82
2022-11-14T22:58:22.538Z,12.82
2022-11-14T23:00:50.125Z,12.81
2022-11-14T23:03:20.533Z,12.81
2022-11-14T23:05:48.439Z,12.46
2022-11-14T23:08:16.296Z,12.53
2022-11-14T23:10:43.814Z,12.79
2022-11-14T23:13:11.520Z,12.78
2022-11-14T23:15:40.274Z,12.78
2022-11-14T23:18:07.836Z,12.76
2022-11-14T23:20:35.519Z,12.54
2022-11-14T23:23:03.092Z,12.77
2022-11-14T23:25:30.542Z,12.31
2022-11-14T23:27:58.871Z,12.77
2022-11-14T23:30:26.335Z,12.76
2022-11-14T23:32:55.103Z,12.77
2022-11-14T23:35:22.569Z,12.76
2022-11-14T23:37:50.035Z,12.77
2022-11-14T23:40:17.713Z,12.77
2022-11-14T23:42:45.257Z,12.74
2022-11-14T23:45:12.692Z,12.76
2022-11-14T23:47:40.119Z,12.76
2022-11-14T23:50:09.946Z,12.76
2022-11-14T23:52:37.389Z,12.75
2022-11-14T23:55:05.284Z,12.70
2022-11-14T23:57:32.845Z,12.76
